Latest Weather Observations for Laverton

IDV60801

Issued at 10:02 pm EST Sunday 28 August 2016 (issued every 30 minutes, with the page automatically refreshed every 10 minutes)

About weather observations | Map of weather stations | Latest weather observations for VIC | Other Formats
Station Details ID: 087031 Name: LAVERTON RAAF Lat: -37.86 Lon: 144.76 Height: 20.1 m
Data from the previous 72 hours. | See also: Recent months at Laverton
Date/Time
EST
Temp
°C
App
Temp
°C
Dew
Point
°C
Rel
Hum
%
Delta-T
°C
Wind Press
QNH
hPa
Press
MSL
hPa
Rain since
9am
mm
Dir  Spd
km/h
Gust
km/h
Spd
kts
Gust
kts
28/10:00pm 10.7 9.5 6.5 75 2.0 NNW 2 7 1 4 1021.9 1021.9 0.0
28/09:30pm 10.8 8.9 6.9 77 1.8 N 6 7 3 4 1021.7 1021.7 0.0
28/09:00pm 11.1 8.7 7.2 77 1.9 NNW 9 13 5 7 1021.4 1021.4 0.0
28/08:30pm 10.5 8.4 6.6 77 1.8 NW 7 9 4 5 1021.1 1021.1 0.0
28/08:00pm 11.4 8.9 6.7 73 2.2 NNW 9 13 5 7 1020.9 1020.9 0.0
28/07:30pm 12.8 10.0 7.0 68 2.8 N 11 17 6 9 1020.6 1020.6 0.0
28/07:00pm 13.5 10.4 7.1 65 3.1 N 13 17 7 9 1020.4 1020.4 0.0
28/06:30pm 13.6 10.8 6.9 64 3.2 NE 11 15 6 8 1020.0 1020.0 0.0
28/06:00pm 14.3 12.0 5.7 56 4.1 E 7 9 4 5 1019.7 1019.7 0.0
28/05:30pm 15.2 12.6 6.2 55 4.3 E 9 13 5 7 1019.2 1019.2 0.0
28/05:00pm 16.2 13.9 5.5 49 5.1 ESE 7 9 4 5 1019.3 1019.3 0.0
28/04:30pm 16.7 14.5 5.3 47 5.5 E 6 9 3 5 1019.3 1019.3 0.0
28/04:00pm 15.8 13.3 6.5 54 4.5 ENE 9 11 5 6 1019.1 1019.1 0.0
28/03:30pm 16.3 13.7 5.9 50 5.0 ESE 9 11 5 6 1019.1 1019.1 0.0
28/03:00pm 16.1 13.2 6.3 52 4.8 SSE 11 15 6 8 1019.1 1019.1 0.0
28/02:30pm 16.7 13.5 6.8 52 4.9 SE 13 19 7 10 1019.0 1019.0 0.0
28/02:00pm 17.3 13.3 6.5 49 5.3 SSE 17 24 9 13 1018.9 1018.9 0.0
28/01:30pm 17.9 14.5 6.1 46 5.8 S 13 19 7 10 1018.9 1018.9 0.0
28/01:00pm 18.8 13.8 3.8 37 7.1 W 19 28 10 15 1019.1 1019.1 0.0
28/12:30pm 17.9 12.6 3.0 37 6.9 WNW 20 35 11 19 1019.7 1019.7 0.0
28/12:00pm 18.2 13.2 4.7 41 6.4 WNW 20 33 11 18 1020.0 1020.0 0.0
28/11:30am 17.4 12.8 5.4 45 5.8 NNW 19 28 10 15 1020.1 1020.1 0.0
28/11:00am 16.2 12.9 6.3 52 4.8 N 13 20 7 11 1020.2 1020.2 0.0
28/10:30am 14.2 10.8 5.8 57 4.0 N 13 19 7 10 1020.2 1020.2 0.0
28/10:00am 13.0 9.5 5.4 60 3.5 N 13 19 7 10 1020.2 1020.2 0.0
28/09:30am 12.4 8.7 4.4 58 3.6 N 13 20 7 11 1020.2 1020.2 0.0
28/09:00am 11.6 8.0 4.8 63 3.1 N 13 19 7 10 1020.3 1020.3 0.0
28/08:30am 11.0 6.9 4.5 64 2.9 NNW 15 20 8 11 1020.2 1020.2 0.0
28/08:00am 10.4 6.6 4.1 65 2.8 N 13 19 7 10 1019.9 1019.9 0.0
28/07:30am 10.1 7.4 3.8 65 2.8 N 7 11 4 6 1019.8 1019.8 0.0
28/07:00am 10.1 7.0 3.8 65 2.8 NNE 9 15 5 8 1019.6 1019.6 0.0
28/06:30am 10.3 7.2 3.6 63 2.9 N 9 13 5 7 1019.3 1019.3 0.0
28/06:00am 10.4 7.3 3.7 63 2.9 N 9 13 5 7 1018.9 1018.9 0.0
28/05:30am 10.1 7.0 3.8 65 2.8 N 9 11 5 6 1018.7 1018.7 0.0
28/05:00am 10.6 6.7 3.6 62 3.1 NNW 13 20 7 11 1018.4 1018.4 0.0
28/04:30am 10.5 5.5 3.8 63 3.0 NNW 19 24 10 13 1018.2 1018.2 0.0
28/04:00am 10.4 5.3 3.9 64 2.9 NNW 20 32 11 17 1018.0 1018.0 0.0
28/03:30am 10.6 5.1 3.9 63 3.0 NNW 22 33 12 18 1018.0 1018.0 0.0
28/03:00am 10.7 4.8 4.0 63 3.0 NNW 24 33 13 18 1017.9 1017.9 0.0
28/02:30am 10.9 4.7 4.1 63 3.0 NNW 26 39 14 21 1017.8 1017.8 0.0
28/02:00am 11.1 5.2 4.1 62 3.1 NNW 24 39 13 21 1018.0 1018.0 0.0
28/01:30am 11.1 5.7 4.3 63 3.0 NNW 22 35 12 19 1018.3 1018.3 0.0
28/01:00am 11.1 5.7 4.6 64 2.9 NNW 22 33 12 18 1018.6 1018.6 0.0
28/12:30am 11.2 5.5 4.7 64 2.9 NNW 24 37 13 20 1018.7 1018.7 0.0
28/12:00am 11.4 5.6 4.6 63 3.1 NNW 24 37 13 20 1019.0 1019.0 0.0
 
Date/Time
EST
Temp
°C
App
Temp
°C
Dew
Point
°C
Rel
Hum
%
Delta-T
°C
Wind Press
QNH
hPa
Press
MSL
hPa
Rain since
9am
mm
Dir  Spd
km/h
Gust
km/h
Spd
kts
Gust
kts
27/11:30pm 11.3 5.6 4.7 64 3.0 NNW 24 33 13 18 1019.0 1019.0 0.0
27/11:00pm 10.6 6.2 4.7 67 2.6 N 17 24 9 13 1019.1 1019.1 0.0
27/10:30pm 10.7 6.3 4.8 67 2.7 N 17 24 9 13 1019.3 1019.3 0.0
27/10:00pm 11.1 6.3 4.6 64 2.9 N 19 28 10 15 1019.5 1019.5 0.0
27/09:30pm 11.6 6.6 4.6 62 3.2 N 20 30 11 16 1019.6 1019.6 0.0
27/09:00pm 11.8 7.0 4.5 61 3.3 N 19 28 10 15 1020.2 1020.2 0.0
27/08:30pm 11.7 6.9 4.4 61 3.3 N 19 28 10 15 1019.8 1019.8 0.0
27/08:00pm 11.2 7.1 4.4 63 3.0 N 15 20 8 11 1019.7 1019.7 0.0
27/07:30pm 10.9 7.1 3.9 62 3.1 N 13 19 7 10 1019.5 1019.5 0.0
27/07:00pm 11.2 6.7 4.0 61 3.2 NNW 17 20 9 11 1019.6 1019.6 0.0
27/06:30pm 11.6 7.1 4.1 60 3.4 NNW 17 26 9 14 1019.2 1019.2 0.0
27/06:00pm 12.2 8.5 4.4 59 3.5 NNW 13 17 7 9 1018.7 1018.7 0.0
27/05:30pm 12.9 7.8 4.1 55 4.0 NNW 20 30 11 16 1018.6 1018.6 0.0
27/05:00pm 13.2 8.8 4.6 56 3.9 NNW 17 26 9 14 1018.6 1018.6 0.0
27/04:30pm 13.9 8.4 4.2 52 4.4 NNW 22 30 12 16 1018.2 1018.2 0.0
27/04:00pm 13.7 8.2 4.0 52 4.4 NNW 22 32 12 17 1018.4 1018.4 0.0
27/03:30pm 14.2 8.3 3.9 50 4.7 NNW 24 33 13 18 1018.3 1018.3 0.0
27/03:00pm 14.8 9.7 4.2 49 4.9 NNW 20 35 11 19 1018.5 1018.5 0.0
27/02:30pm 15.3 9.4 3.8 46 5.3 NW 24 32 13 17 1018.8 1018.8 0.0
27/02:00pm 15.1 10.1 4.5 49 4.9 NW 20 32 11 17 1019.1 1019.1 0.0
27/01:30pm 14.3 9.5 4.6 52 4.5 NNW 19 26 10 14 1019.3 1019.3 0.0
27/01:00pm 13.8 8.7 3.9 51 4.5 NW 20 30 11 16 1019.8 1019.8 0.0
27/12:30pm 14.9 9.1 4.6 50 4.8 NW 24 37 13 20 1020.3 1020.3 0.0
27/12:00pm 13.3 6.8 4.5 55 4.0 WNW 28 35 15 19 1021.1 1021.1 0.0
27/11:30am 14.1 8.2 4.1 51 4.6 WNW 24 39 13 21 1021.5 1021.5 0.0
27/11:00am 13.0 7.1 3.9 54 4.1 NW 24 33 13 18 1021.9 1021.9 0.0
27/10:30am 12.8 6.5 3.7 54 4.1 NW 26 32 14 17 1022.0 1022.0 0.0
27/10:00am 12.1 6.2 3.9 57 3.7 NW 24 32 13 17 1022.0 1022.0 0.0
27/09:30am 11.1 4.4 3.4 59 3.4 NW 28 35 15 19 1022.0 1022.0 0.0
27/09:00am 11.4 6.6 4.8 64 3.0 NNW 19 28 10 15 1022.0 1022.0 0.0
27/08:30am 9.5 5.0 4.3 70 2.3 NNW 17 20 9 11 1022.6 1022.6 0.0
27/08:00am 8.0 4.2 3.7 74 1.8 N 13 19 7 10 1022.5 1022.5 0.0
27/07:30am 7.0 3.1 3.3 77 1.6 N 13 17 7 9 1022.4 1022.4 0.0
27/07:00am 6.7 3.7 4.0 83 1.1 NNW 9 11 5 6 1022.2 1022.2 0.0
27/06:30am 7.0 3.2 3.8 80 1.4 NNW 13 19 7 10 1021.9 1021.9 0.0
27/06:00am 6.4 2.8 3.0 79 1.4 N 11 17 6 9 1021.5 1021.5 0.0
27/05:30am 7.1 3.2 3.2 76 1.6 N 13 17 7 9 1021.3 1021.3 0.0
27/05:00am 7.2 3.3 3.4 77 1.6 NNW 13 19 7 10 1021.1 1021.1 0.0
27/04:30am 7.0 3.1 3.4 78 1.5 NNW 13 17 7 9 1021.1 1021.1 0.0
27/04:00am 7.5 3.7 3.7 77 1.6 NW 13 15 7 8 1021.0 1021.0 0.0
27/03:30am 8.0 5.0 4.2 77 1.7 NNW 9 13 5 7 1020.9 1020.9 0.0
27/03:00am 8.1 4.7 4.1 76 1.7 NNW 11 15 6 8 1021.0 1021.0 0.0
27/02:30am 7.8 4.1 4.2 78 1.6 NW 13 15 7 8 1021.4 1021.4 0.0
27/02:00am 7.7 4.2 3.7 76 1.7 NNW 11 15 6 8 1021.5 1021.5 0.0
27/01:30am 8.2 4.4 3.9 74 1.9 NW 13 17 7 9 1021.6 1021.6 0.0
27/01:00am 8.6 5.2 4.0 73 2.0 NW 11 15 6 8 1021.8 1021.8 0.0
27/12:30am 8.5 5.5 4.3 75 1.8 NW 9 13 5 7 1022.1 1022.1 0.0
27/12:00am 8.5 5.2 4.5 76 1.8 NW 11 13 6 7 1022.1 1022.1 0.0
 
Date/Time
EST
Temp
°C
App
Temp
°C
Dew
Point
°C
Rel
Hum
%
Delta-T
°C
Wind Press
QNH
hPa
Press
MSL
hPa
Rain since
9am
mm
Dir  Spd
km/h
Gust
km/h
Spd
kts
Gust
kts
26/11:30pm 8.2 4.9 4.8 79 1.5 NW 11 13 6 7 1022.3 1022.3 0.0
26/11:00pm 7.7 5.2 4.7 81 1.3 NNW 7 9 4 5 1022.3 1022.3 0.0
26/10:30pm 7.7 5.0 3.9 77 1.6 NNW 7 9 4 5 1022.2 1022.2 0.0
26/10:00pm 8.2 5.7 3.9 74 1.9 NNW 6 9 3 5 1022.0 1022.0 0.0
26/09:30pm 8.3 5.3 3.9 74 1.9 NNW 9 13 5 7 1021.9 1021.9 0.0
26/09:00pm 8.7 4.9 4.1 73 2.0 NNW 13 15 7 8 1021.9 1021.9 0.0
26/08:30pm 9.8 6.5 4.6 70 2.3 NNW 11 13 6 7 1021.9 1021.9 0.0
26/08:00pm 9.5 5.9 4.9 73 2.1 NW 13 15 7 8 1021.9 1021.9 0.0
26/07:30pm 9.7 6.9 5.1 73 2.1 NW 9 11 5 6 1021.9 1021.9 0.0
26/07:00pm 10.3 7.1 4.9 69 2.4 NW 11 13 6 7 1021.8 1021.8 0.0
26/06:30pm 10.8 7.9 4.9 67 2.7 NNW 9 13 5 7 1021.4 1021.4 0.0
26/06:00pm 11.1 8.2 4.8 65 2.8 NW 9 11 5 6 1021.2 1021.2 0.0
26/05:30pm 11.8 8.0 4.1 59 3.5 NW 13 17 7 9 1020.9 1020.9 0.0
26/05:00pm 12.1 7.5 3.9 57 3.7 NW 17 22 9 12 1020.7 1020.7 0.0
26/04:30pm 12.5 7.9 3.7 55 3.9 WNW 17 22 9 12 1020.6 1020.6 0.0
26/04:00pm 12.8 8.5 3.2 52 4.2 WNW 15 22 8 12 1020.5 1020.5 0.0
26/03:30pm 12.9 7.9 3.6 53 4.2 WNW 19 24 10 13 1020.4 1020.4 0.0
26/03:00pm 13.3 8.5 2.8 49 4.6 WNW 17 24 9 13 1020.4 1020.4 0.0
26/02:30pm 13.5 8.3 3.8 52 4.4 WNW 20 30 11 16 1020.6 1020.6 0.0
26/02:00pm 13.4 7.8 3.2 50 4.5 WNW 22 30 12 16 1020.8 1020.8 0.0
26/01:30pm 12.7 7.7 3.6 54 4.1 WSW 19 24 10 13 1021.0 1021.0 0.0
26/01:00pm 12.4 7.4 4.6 59 3.5 WSW 20 28 11 15 1021.3 1021.3 0.0
26/12:30pm 12.6 7.7 4.3 57 3.8 WSW 19 30 10 16 1021.6 1021.6 0.0
26/12:00pm 12.7 8.5 5.6 62 3.3 WSW 17 24 9 13 1021.9 1021.9 0.0
26/11:30am 11.8 6.4 4.3 60 3.4 WSW 22 32 12 17 1022.2 1022.2 0.0
26/11:00am 12.0 6.1 3.8 57 3.6 W 24 33 13 18 1022.1 1022.1 0.0
26/10:30am 12.1 7.8 5.3 63 3.1 W 17 26 9 14 1022.2 1022.2 0.0
26/10:00am 11.1 6.4 5.2 67 2.7 W 19 24 10 13 1022.1 1022.1 0.0
26/09:30am 10.3 5.9 6.5 77 1.8 WNW 19 28 10 15 1022.3 1022.3 0.0
26/09:00am 9.5 4.4 6.0 79 1.6 WNW 22 30 12 16 1022.1 1022.1 0.2
26/08:30am 8.0 3.8 5.6 85 1.1 WNW 17 22 9 12 1022.1 1022.1 0.2
26/08:00am 7.6 4.2 6.1 90 0.7 WNW 13 17 7 9 1022.0 1022.0 0.2
26/07:30am 7.0 3.6 6.1 94 0.4 NW 13 17 7 9 1021.8 1021.8 0.2
26/07:00am 6.4 3.8 6.0 97 0.2 WNW 9 11 5 6 1021.5 1021.5 0.2
26/06:30am 6.3 2.9 5.9 97 0.2 NW 13 15 7 8 1021.2 1021.2 0.2
26/06:00am 6.3 3.3 5.9 97 0.2 NW 11 13 6 7 1020.9 1020.9 0.2
26/05:30am 5.8 2.7 5.7 99 0.0 WNW 11 15 6 8 1020.6 1020.6 0.2
26/05:00am 5.1 1.4 4.7 97 0.2 NW 13 17 7 9 1020.2 1020.2 0.2
26/04:30am 5.9 2.2 4.7 92 0.5 W 13 17 7 9 1020.0 1020.0 0.2
26/04:00am 6.4 3.2 4.9 90 0.7 W 11 15 6 8 1019.9 1019.9 0.2
26/03:30am 6.6 3.0 4.9 89 0.7 WNW 13 17 7 9 1019.7 1019.7 0.2
26/03:00am 6.4 2.4 5.0 91 0.6 WNW 15 19 8 10 1019.8 1019.8 0.2
26/02:30am 6.3 2.7 4.9 91 0.6 W 13 17 7 9 1019.8 1019.8 0.2
26/02:00am 5.7 2.9 5.1 96 0.3 W 9 15 5 8 1020.0 1020.0 0.2
26/01:30am 4.1 0.6 3.5 96 0.2 NW 11 13 6 7 1019.9 1019.9 0.2
26/01:00am 5.6 1.9 4.6 93 0.4 WNW 13 17 7 9 1019.9 1019.9 0.2
26/12:30am 5.6 2.3 4.4 92 0.5 WNW 11 15 6 8 1019.9 1019.9 0.2
26/12:00am 6.1 3.4 5.4 95 0.3 WNW 9 13 5 7 1019.8 1019.8 0.2
 
Date/Time
EST
Temp
°C
App
Temp
°C
Dew
Point
°C
Rel
Hum
%
Delta-T
°C
Wind Press
QNH
hPa
Press
MSL
hPa
Rain since
9am
mm
Dir  Spd
km/h
Gust
km/h
Spd
kts
Gust
kts
25/11:30pm 6.7 4.0 5.8 94 0.4 WNW 9 13 5 7 1019.7 1019.7 0.2
25/11:00pm 7.1 4.0 5.4 89 0.8 W 11 17 6 9 1019.7 1019.7 0.2
25/10:30pm 5.2 2.2 4.3 94 0.4 NW 9 11 5 6 1019.6 1019.6 0.2

Other Formats:

Comma delimited format used in spreadsheet applications
http://www.bom.gov.au/fwo/IDV60801/IDV60801.94865.axf

JavaScript Object Notation format (JSON) in row-major order
http://www.bom.gov.au/fwo/IDV60801/IDV60801.94865.json